Obelix — 7JAX — position and weather

sailwx.info

Track history (hours):
 
Tides and Currents Weather Stations Pressure Air Temp Water Temp Dewpoint Dewpoint Depression Visibility Wind Speed Wind Dir Waves Ship Positions

Obelix

Last reported at 2016-Feb-11 06:32 UTC. Time now 2016-Feb-11 08:49 UTC.
Position N 34°40' E 134°45'.

Length 74 m; draft 3.8 m.

Type: Ship. MMSI: 432528000.

Date/timePositionNaut miles runAvg speedWind from/ knotsBaromVisibWave heightAir tempDewpointWater temp
2016-Feb-11 06:32N 34°40' E 134°45'14 0.6
2016-Feb-10 08:08N 34°37' E 135°01'5 8.6
2016-Feb-10 07:33N 34°35' E 135°07'1211.6
2016-Feb-10 06:33N 34°34' E 135°21'4 3.0
2016-Feb-10 05:15N 34°32' E 135°25'0 0.0
2016-Feb-10 04:12N 34°32' E 135°25'0 0.0
2016-Feb-10 03:32N 34°32' E 135°25'0 0.0
2016-Feb-10 02:33N 34°32' E 135°25'0 0.0
2016-Feb-10 01:33N 34°32' E 135°25'0 0.0
2016-Feb-10 00:33N 34°32' E 135°25'3 2.7
2016-Feb-09 23:32N 34°33' E 135°22'3 2.0
2016-Feb-09 22:15N 34°33' E 135°19'0 0.0
2016-Feb-09 21:33N 34°33' E 135°19'0 0.0
2016-Feb-09 20:33N 34°33' E 135°19'0 0.0
2016-Feb-09 19:33N 34°33' E 135°19'0 0.0
2016-Feb-09 18:33N 34°33' E 135°19'0 0.0
2016-Feb-09 17:33N 34°33' E 135°19'0 0.0
2016-Feb-09 16:33N 34°33' E 135°19'0 0.0
2016-Feb-09 15:21N 34°33' E 135°19'0 0.0
2016-Feb-09 14:33N 34°33' E 135°19'0 0.0
2016-Feb-09 13:15N 34°33' E 135°19'0 0.0
2016-Feb-09 12:33N 34°33' E 135°19'0 0.0
2016-Feb-09 11:33N 34°33' E 135°19'0 0.1
2016-Feb-09 10:22N 34°33' E 135°19'8 9.3
2016-Feb-09 09:33N 34°34' E 135°10'1312.4
2016-Feb-09 08:30N 34°35' E 134°54'1 0.0
2016-Feb-07 06:26N 34°36' E 134°53'8 8.8
2016-Feb-07 05:32N 34°36' E 135°03'1111.0
2016-Feb-07 04:33N 34°35' E 135°16'8 7.9
2016-Feb-07 03:33N 34°33' E 135°25'0 0.0
2016-Feb-07 02:32N 34°33' E 135°25'0 0.0
2016-Feb-07 01:33N 34°33' E 135°25'0 0.0
2016-Feb-07 00:33N 34°33' E 135°25'0 0.0
2016-Feb-06 23:33N 34°33' E 135°25'1 0.6
2016-Feb-06 22:33N 34°33' E 135°25'5 4.6
2016-Feb-06 21:31N 34°32' E 135°19'0 0.0
2016-Feb-06 20:31N 34°32' E 135°19'0 0.0
2016-Feb-06 19:31N 34°32' E 135°19'0 0.0
2016-Feb-06 18:31N 34°32' E 135°19'0 0.0
2016-Feb-06 17:13N 34°32' E 135°19'0 0.0
2016-Feb-06 16:31N 34°32' E 135°19'0 0.0
2016-Feb-06 15:31N 34°32' E 135°19'0 0.0
2016-Feb-06 14:25N 34°32' E 135°19'0 0.0
2016-Feb-06 13:31N 34°32' E 135°19'0 0.0
2016-Feb-06 12:31N 34°32' E 135°19'0 0.0
2016-Feb-06 11:31N 34°32' E 135°19'0 0.0
2016-Feb-06 10:31N 34°32' E 135°19'3 1.6
2016-Feb-06 08:33N 34°34' E 135°16'1312.6
2016-Feb-06 07:33N 34°37' E 135°01'6 0.2
2016-Feb-05 07:09N 34°37' E 134°54'711.2
2016-Feb-05 06:33N 34°37' E 135°02'1111.1
2016-Feb-05 05:33N 34°35' E 135°15'9 8.6
2016-Feb-05 04:33N 34°33' E 135°25'0 0.0
2016-Feb-05 03:29N 34°33' E 135°25'0 0.0
2016-Feb-05 02:33N 34°33' E 135°25'0 0.0
2016-Feb-05 01:33N 34°33' E 135°25'0 0.0
2016-Feb-05 00:33N 34°33' E 135°25'1 0.5
2016-Feb-04 23:33N 34°33' E 135°25'5 4.6
2016-Feb-04 22:30N 34°32' E 135°19'0 0.0
2016-Feb-04 21:24N 34°32' E 135°19'0 0.0
2016-Feb-04 20:24N 34°32' E 135°19'0 0.0
2016-Feb-04 18:30N 34°32' E 135°19'0 0.0
2016-Feb-04 17:30N 34°32' E 135°19'0 0.1
2016-Feb-04 16:30N 34°32' E 135°19'0 0.0
2016-Feb-04 15:30N 34°32' E 135°19'0 0.0
2016-Feb-04 14:24N 34°32' E 135°19'0 0.0
2016-Feb-04 13:30N 34°32' E 135°19'0 0.0
2016-Feb-04 12:12N 34°32' E 135°19'0 0.0
2016-Feb-04 11:24N 34°32' E 135°19'0 0.0
2016-Feb-04 10:24N 34°32' E 135°19'0 0.0
2016-Feb-04 09:30N 34°32' E 135°19'0 0.0
2016-Feb-04 08:30N 34°32' E 135°19'0 0.0
2016-Feb-04 07:24N 34°32' E 135°19'2 2.0
2016-Feb-04 06:32N 34°33' E 135°17'1212.5
2016-Feb-04 05:33N 34°36' E 135°03'1212.0
2016-Feb-04 04:33N 34°40' E 134°49'  
2016-Feb-01 07:22N 34°36' E 134°54'911.0
2016-Feb-01 06:33N 34°36' E 135°05'  
Track history (hours):
 
Tides and Currents Weather Stations Pressure Air Temp Water Temp Dewpoint Dewpoint Depression Visibility Wind Speed Wind Dir Waves Ship Positions

Obelix

Last reported at 2016-Feb-11 06:32 UTC. Time now 2016-Feb-11 08:49 UTC.
Position N 34°40' E 134°45'.

Length 74 m; draft 3.8 m.

Type: Ship. MMSI: 432528000.

Date/timePositionNaut miles runAvg speedWind from/ knotsBaromVisibWave heightAir tempDewpointWater temp
2016-Feb-11 06:32N 34°40' E 134°45'14 0.6
2016-Feb-10 08:08N 34°37' E 135°01'5 8.6
2016-Feb-10 07:33N 34°35' E 135°07'1211.6
2016-Feb-10 06:33N 34°34' E 135°21'4 3.0
2016-Feb-10 05:15N 34°32' E 135°25'0 0.0
2016-Feb-10 04:12N 34°32' E 135°25'0 0.0
2016-Feb-10 03:32N 34°32' E 135°25'0 0.0
2016-Feb-10 02:33N 34°32' E 135°25'0 0.0
2016-Feb-10 01:33N 34°32' E 135°25'0 0.0
2016-Feb-10 00:33N 34°32' E 135°25'3 2.7
2016-Feb-09 23:32N 34°33' E 135°22'3 2.0
2016-Feb-09 22:15N 34°33' E 135°19'0 0.0
2016-Feb-09 21:33N 34°33' E 135°19'0 0.0
2016-Feb-09 20:33N 34°33' E 135°19'0 0.0
2016-Feb-09 19:33N 34°33' E 135°19'0 0.0
2016-Feb-09 18:33N 34°33' E 135°19'0 0.0
2016-Feb-09 17:33N 34°33' E 135°19'0 0.0
2016-Feb-09 16:33N 34°33' E 135°19'0 0.0
2016-Feb-09 15:21N 34°33' E 135°19'0 0.0
2016-Feb-09 14:33N 34°33' E 135°19'0 0.0
2016-Feb-09 13:15N 34°33' E 135°19'0 0.0
2016-Feb-09 12:33N 34°33' E 135°19'0 0.0
2016-Feb-09 11:33N 34°33' E 135°19'0 0.1
2016-Feb-09 10:22N 34°33' E 135°19'8 9.3
2016-Feb-09 09:33N 34°34' E 135°10'1312.4
2016-Feb-09 08:30N 34°35' E 134°54'1 0.0
2016-Feb-07 06:26N 34°36' E 134°53'8 8.8
2016-Feb-07 05:32N 34°36' E 135°03'1111.0
2016-Feb-07 04:33N 34°35' E 135°16'8 7.9
2016-Feb-07 03:33N 34°33' E 135°25'0 0.0
2016-Feb-07 02:32N 34°33' E 135°25'0 0.0
2016-Feb-07 01:33N 34°33' E 135°25'0 0.0
2016-Feb-07 00:33N 34°33' E 135°25'0 0.0
2016-Feb-06 23:33N 34°33' E 135°25'1 0.6
2016-Feb-06 22:33N 34°33' E 135°25'5 4.6
2016-Feb-06 21:31N 34°32' E 135°19'0 0.0
2016-Feb-06 20:31N 34°32' E 135°19'0 0.0
2016-Feb-06 19:31N 34°32' E 135°19'0 0.0
2016-Feb-06 18:31N 34°32' E 135°19'0 0.0
2016-Feb-06 17:13N 34°32' E 135°19'0 0.0
2016-Feb-06 16:31N 34°32' E 135°19'0 0.0
2016-Feb-06 15:31N 34°32' E 135°19'0 0.0
2016-Feb-06 14:25N 34°32' E 135°19'0 0.0
2016-Feb-06 13:31N 34°32' E 135°19'0 0.0
2016-Feb-06 12:31N 34°32' E 135°19'0 0.0
2016-Feb-06 11:31N 34°32' E 135°19'0 0.0
2016-Feb-06 10:31N 34°32' E 135°19'3 1.6
2016-Feb-06 08:33N 34°34' E 135°16'1312.6
2016-Feb-06 07:33N 34°37' E 135°01'6 0.2
2016-Feb-05 07:09N 34°37' E 134°54'711.2
2016-Feb-05 06:33N 34°37' E 135°02'1111.1
2016-Feb-05 05:33N 34°35' E 135°15'9 8.6
2016-Feb-05 04:33N 34°33' E 135°25'0 0.0
2016-Feb-05 03:29N 34°33' E 135°25'0 0.0
2016-Feb-05 02:33N 34°33' E 135°25'0 0.0
2016-Feb-05 01:33N 34°33' E 135°25'0 0.0
2016-Feb-05 00:33N 34°33' E 135°25'1 0.5
2016-Feb-04 23:33N 34°33' E 135°25'5 4.6
2016-Feb-04 22:30N 34°32' E 135°19'0 0.0
2016-Feb-04 21:24N 34°32' E 135°19'0 0.0
2016-Feb-04 20:24N 34°32' E 135°19'0 0.0
2016-Feb-04 18:30N 34°32' E 135°19'0 0.0
2016-Feb-04 17:30N 34°32' E 135°19'0 0.1
2016-Feb-04 16:30N 34°32' E 135°19'0 0.0
2016-Feb-04 15:30N 34°32' E 135°19'0 0.0
2016-Feb-04 14:24N 34°32' E 135°19'0 0.0
2016-Feb-04 13:30N 34°32' E 135°19'0 0.0
2016-Feb-04 12:12N 34°32' E 135°19'0 0.0
2016-Feb-04 11:24N 34°32' E 135°19'0 0.0
2016-Feb-04 10:24N 34°32' E 135°19'0 0.0
2016-Feb-04 09:30N 34°32' E 135°19'0 0.0
2016-Feb-04 08:30N 34°32' E 135°19'0 0.0
2016-Feb-04 07:24N 34°32' E 135°19'2 2.0
2016-Feb-04 06:32N 34°33' E 135°17'1212.5
2016-Feb-04 05:33N 34°36' E 135°03'1212.0
2016-Feb-04 04:33N 34°40' E 134°49'  
2016-Feb-01 07:22N 34°36' E 134°54'911.0
2016-Feb-01 06:33N 34°36' E 135°05'  

Dump ship's entire track history